Terminal Aerodrome Forecast
Issued by NWS Sioux Falls, SD

Home | Current Version | Previous Version | Text Only | Print | Product List | Glossary Off
Versions: 1 2 3 4 5 6 7 8 9 10 11 12 13 14

044
FTUS43 KFSD 230541
TAFFSD
TAF
KFSD 230541Z 2306/2406 VRB04KT P6SM SKC
     FM231400 34008KT P6SM SKC
     FM231700 33012G18KT P6SM FEW040
     FM232200 36009KT P6SM FEW040
     FM240200 05004KT P6SM SKC=

USA.gov is the U.S. government's official web portal to all federal, state and local government web resources and services.